sensor_id;sensor_type;location;lat;lon;timestamp;P1;durP1;ratioP1;P2;durP2;ratioP2
64842;SDS011;51310;52.198;5.422;2022-07-01T00:02:25;27.45;;;15.48;;
64842;SDS011;51310;52.198;5.422;2022-07-01T00:04:51;25.95;;;14.90;;
64842;SDS011;51310;52.198;5.422;2022-07-01T00:07:17;25.00;;;14.13;;
64842;SDS011;51310;52.198;5.422;2022-07-01T00:09:43;28.15;;;16.10;;
64842;SDS011;51310;52.198;5.422;2022-07-01T00:12:09;30.85;;;16.05;;
64842;SDS011;51310;52.198;5.422;2022-07-01T00:14:35;30.23;;;15.57;;
64842;SDS011;51310;52.198;5.422;2022-07-01T00:17:01;26.92;;;16.10;;
64842;SDS011;51310;52.198;5.422;2022-07-01T00:19:28;29.05;;;16.00;;
64842;SDS011;51310;52.198;5.422;2022-07-01T00:21:53;24.38;;;16.17;;
64842;SDS011;51310;52.198;5.422;2022-07-01T00:24:19;27.15;;;16.23;;
64842;SDS011;51310;52.198;5.422;2022-07-01T00:26:45;28.52;;;17.88;;
64842;SDS011;51310;52.198;5.422;2022-07-01T00:29:11;23.95;;;15.65;;
64842;SDS011;51310;52.198;5.422;2022-07-01T00:31:37;24.87;;;15.87;;
64842;SDS011;51310;52.198;5.422;2022-07-01T00:34:03;27.37;;;17.10;;
64842;SDS011;51310;52.198;5.422;2022-07-01T00:36:29;26.73;;;16.87;;
64842;SDS011;51310;52.198;5.422;2022-07-01T00:38:55;26.00;;;17.40;;
64842;SDS011;51310;52.198;5.422;2022-07-01T00:41:21;26.53;;;15.53;;
64842;SDS011;51310;52.198;5.422;2022-07-01T00:43:47;30.00;;;16.38;;
64842;SDS011;51310;52.198;5.422;2022-07-01T00:46:13;26.88;;;16.02;;
64842;SDS011;51310;52.198;5.422;2022-07-01T00:48:39;26.45;;;15.40;;
64842;SDS011;51310;52.198;5.422;2022-07-01T00:51:08;24.85;;;15.27;;
64842;SDS011;51310;52.198;5.422;2022-07-01T00:53:35;28.52;;;15.55;;
64842;SDS011;51310;52.198;5.422;2022-07-01T00:56:02;27.30;;;16.10;;
64842;SDS011;51310;52.198;5.422;2022-07-01T00:58:28;27.27;;;16.30;;
64842;SDS011;51310;52.198;5.422;2022-07-01T01:00:56;27.75;;;15.57;;
64842;SDS011;51310;52.198;5.422;2022-07-01T01:03:24;29.27;;;15.07;;
64842;SDS011;51310;52.198;5.422;2022-07-01T01:05:51;29.55;;;17.80;;
64842;SDS011;51310;52.198;5.422;2022-07-01T01:08:21;29.80;;;18.50;;
64842;SDS011;51310;52.198;5.422;2022-07-01T01:10:48;30.88;;;18.73;;
64842;SDS011;51310;52.198;5.422;2022-07-01T01:13:15;30.93;;;18.60;;
64842;SDS011;51310;52.198;5.422;2022-07-01T01:15:41;30.73;;;19.58;;
64842;SDS011;51310;52.198;5.422;2022-07-01T01:18:07;29.27;;;18.80;;
64842;SDS011;51310;52.198;5.422;2022-07-01T01:20:36;32.63;;;21.08;;
64842;SDS011;51310;52.198;5.422;2022-07-01T01:23:03;36.25;;;20.85;;
64842;SDS011;51310;52.198;5.422;2022-07-01T01:25:30;35.45;;;21.60;;
64842;SDS011;51310;52.198;5.422;2022-07-01T01:27:57;37.85;;;22.73;;
64842;SDS011;51310;52.198;5.422;2022-07-01T01:30:26;35.53;;;21.40;;
64842;SDS011;51310;52.198;5.422;2022-07-01T01:32:52;37.60;;;21.92;;
64842;SDS011;51310;52.198;5.422;2022-07-01T01:35:18;36.38;;;22.40;;
64842;SDS011;51310;52.198;5.422;2022-07-01T01:37:46;38.20;;;22.90;;
64842;SDS011;51310;52.198;5.422;2022-07-01T01:40:12;36.83;;;23.13;;
64842;SDS011;51310;52.198;5.422;2022-07-01T01:42:42;37.35;;;23.42;;
64842;SDS011;51310;52.198;5.422;2022-07-01T01:45:09;35.20;;;22.80;;
64842;SDS011;51310;52.198;5.422;2022-07-01T01:47:37;35.70;;;22.15;;
64842;SDS011;51310;52.198;5.422;2022-07-01T01:50:07;38.55;;;23.63;;
64842;SDS011;51310;52.198;5.422;2022-07-01T01:52:36;39.58;;;23.58;;
64842;SDS011;51310;52.198;5.422;2022-07-01T01:55:03;36.53;;;23.63;;
64842;SDS011;51310;52.198;5.422;2022-07-01T01:57:31;38.75;;;24.60;;
64842;SDS011;51310;52.198;5.422;2022-07-01T01:59:57;38.33;;;24.23;;
64842;SDS011;51310;52.198;5.422;2022-07-01T02:02:23;37.92;;;25.02;;
64842;SDS011;51310;52.198;5.422;2022-07-01T02:04:49;40.78;;;25.17;;
64842;SDS011;51310;52.198;5.422;2022-07-01T02:07:15;41.78;;;26.13;;
64842;SDS011;51310;52.198;5.422;2022-07-01T02:09:41;45.22;;;26.60;;
64842;SDS011;51310;52.198;5.422;2022-07-01T02:12:07;44.87;;;27.43;;
64842;SDS011;51310;52.198;5.422;2022-07-01T02:14:33;39.47;;;25.48;;
64842;SDS011;51310;52.198;5.422;2022-07-01T02:16:59;44.58;;;26.67;;
64842;SDS011;51310;52.198;5.422;2022-07-01T02:19:24;41.70;;;25.92;;
64842;SDS011;51310;52.198;5.422;2022-07-01T02:21:50;42.95;;;26.23;;
64842;SDS011;51310;52.198;5.422;2022-07-01T02:24:17;46.42;;;26.83;;
64842;SDS011;51310;52.198;5.422;2022-07-01T02:26:43;40.75;;;25.83;;
64842;SDS011;51310;52.198;5.422;2022-07-01T02:29:10;43.05;;;26.90;;
64842;SDS011;51310;52.198;5.422;2022-07-01T02:31:36;45.13;;;27.77;;
64842;SDS011;51310;52.198;5.422;2022-07-01T02:34:03;44.35;;;26.02;;
64842;SDS011;51310;52.198;5.422;2022-07-01T02:36:29;44.30;;;25.63;;
64842;SDS011;51310;52.198;5.422;2022-07-01T02:38:54;40.25;;;25.17;;
64842;SDS011;51310;52.198;5.422;2022-07-01T02:41:20;44.63;;;26.38;;
64842;SDS011;51310;52.198;5.422;2022-07-01T02:43:46;43.97;;;25.70;;
64842;SDS011;51310;52.198;5.422;2022-07-01T02:46:12;43.13;;;26.80;;
64842;SDS011;51310;52.198;5.422;2022-07-01T02:48:38;43.97;;;26.42;;
64842;SDS011;51310;52.198;5.422;2022-07-01T02:51:04;43.35;;;25.95;;
64842;SDS011;51310;52.198;5.422;2022-07-01T02:53:30;42.35;;;25.55;;
64842;SDS011;51310;52.198;5.422;2022-07-01T02:55:55;48.05;;;27.23;;
64842;SDS011;51310;52.198;5.422;2022-07-01T02:58:22;45.97;;;27.10;;
64842;SDS011;51310;52.198;5.422;2022-07-01T03:00:49;46.95;;;26.23;;
64842;SDS011;51310;52.198;5.422;2022-07-01T03:03:17;46.07;;;26.53;;
64842;SDS011;51310;52.198;5.422;2022-07-01T03:05:44;44.60;;;25.63;;
64842;SDS011;51310;52.198;5.422;2022-07-01T03:08:12;42.00;;;25.08;;
64842;SDS011;51310;52.198;5.422;2022-07-01T03:10:38;45.03;;;26.02;;
64842;SDS011;51310;52.198;5.422;2022-07-01T03:13:04;45.53;;;25.60;;
64842;SDS011;51310;52.198;5.422;2022-07-01T03:15:30;45.45;;;26.25;;
64842;SDS011;51310;52.198;5.422;2022-07-01T03:17:56;46.40;;;25.50;;
64842;SDS011;51310;52.198;5.422;2022-07-01T03:20:21;48.13;;;25.95;;
64842;SDS011;51310;52.198;5.422;2022-07-01T03:22:47;50.88;;;25.65;;
64842;SDS011;51310;52.198;5.422;2022-07-01T03:25:15;45.85;;;25.75;;
64842;SDS011;51310;52.198;5.422;2022-07-01T03:27:41;44.77;;;24.87;;
64842;SDS011;51310;52.198;5.422;2022-07-01T03:30:10;48.03;;;25.35;;
64842;SDS011;51310;52.198;5.422;2022-07-01T03:32:38;46.50;;;26.27;;
64842;SDS011;51310;52.198;5.422;2022-07-01T03:35:04;46.93;;;25.07;;
64842;SDS011;51310;52.198;5.422;2022-07-01T03:37:50;45.45;;;25.65;;
64842;SDS011;51310;52.198;5.422;2022-07-01T03:40:16;48.10;;;25.90;;
64842;SDS011;51310;52.198;5.422;2022-07-01T03:42:42;48.47;;;25.60;;
64842;SDS011;51310;52.198;5.422;2022-07-01T03:45:08;46.88;;;26.85;;
64842;SDS011;51310;52.198;5.422;2022-07-01T03:47:34;49.95;;;26.52;;
64842;SDS011;51310;52.198;5.422;2022-07-01T03:50:00;55.10;;;27.20;;
64842;SDS011;51310;52.198;5.422;2022-07-01T03:52:26;58.88;;;27.75;;
64842;SDS011;51310;52.198;5.422;2022-07-01T03:54:52;56.42;;;28.73;;
64842;SDS011;51310;52.198;5.422;2022-07-01T03:57:17;61.83;;;30.60;;
64842;SDS011;51310;52.198;5.422;2022-07-01T03:59:44;64.35;;;30.27;;
64842;SDS011;51310;52.198;5.422;2022-07-01T04:02:11;66.15;;;30.17;;
64842;SDS011;51310;52.198;5.422;2022-07-01T04:04:37;62.05;;;30.23;;
64842;SDS011;51310;52.198;5.422;2022-07-01T04:07:04;59.05;;;28.85;;
64842;SDS011;51310;52.198;5.422;2022-07-01T04:09:32;57.53;;;29.35;;
64842;SDS011;51310;52.198;5.422;2022-07-01T04:11:58;52.58;;;26.63;;
64842;SDS011;51310;52.198;5.422;2022-07-01T04:14:24;51.25;;;27.42;;
64842;SDS011;51310;52.198;5.422;2022-07-01T04:16:50;56.67;;;28.60;;
64842;SDS011;51310;52.198;5.422;2022-07-01T04:19:17;50.50;;;27.50;;
64842;SDS011;51310;52.198;5.422;2022-07-01T04:21:43;50.05;;;27.83;;
64842;SDS011;51310;52.198;5.422;2022-07-01T04:24:28;46.85;;;27.55;;
64842;SDS011;51310;52.198;5.422;2022-07-01T04:26:57;52.75;;;26.52;;
64842;SDS011;51310;52.198;5.422;2022-07-01T04:29:24;44.40;;;26.55;;
64842;SDS011;51310;52.198;5.422;2022-07-01T04:31:52;51.75;;;27.50;;
64842;SDS011;51310;52.198;5.422;2022-07-01T04:34:18;47.28;;;27.52;;
64842;SDS011;51310;52.198;5.422;2022-07-01T04:36:44;49.50;;;27.25;;
64842;SDS011;51310;52.198;5.422;2022-07-01T04:39:10;46.60;;;27.23;;
64842;SDS011;51310;52.198;5.422;2022-07-01T04:41:35;43.13;;;26.77;;
64842;SDS011;51310;52.198;5.422;2022-07-01T04:44:20;48.60;;;28.15;;
64842;SDS011;51310;52.198;5.422;2022-07-01T04:46:46;46.95;;;27.55;;
64842;SDS011;51310;52.198;5.422;2022-07-01T04:49:12;45.30;;;26.92;;
64842;SDS011;51310;52.198;5.422;2022-07-01T04:51:37;45.92;;;27.75;;
64842;SDS011;51310;52.198;5.422;2022-07-01T04:54:04;48.63;;;27.67;;
64842;SDS011;51310;52.198;5.422;2022-07-01T04:56:32;49.33;;;28.73;;
64842;SDS011;51310;52.198;5.422;2022-07-01T04:59:00;46.90;;;27.30;;
64842;SDS011;51310;52.198;5.422;2022-07-01T05:01:27;48.63;;;26.85;;
64842;SDS011;51310;52.198;5.422;2022-07-01T05:03:54;46.03;;;26.23;;
64842;SDS011;51310;52.198;5.422;2022-07-01T05:06:21;49.58;;;27.48;;
64842;SDS011;51310;52.198;5.422;2022-07-01T05:08:48;41.43;;;25.80;;
64842;SDS011;51310;52.198;5.422;2022-07-01T05:11:14;46.78;;;26.52;;
64842;SDS011;51310;52.198;5.422;2022-07-01T05:13:40;42.83;;;26.02;;
64842;SDS011;51310;52.198;5.422;2022-07-01T05:16:06;41.78;;;25.88;;
64842;SDS011;51310;52.198;5.422;2022-07-01T05:18:36;44.42;;;25.90;;
64842;SDS011;51310;52.198;5.422;2022-07-01T05:21:21;40.40;;;25.70;;
64842;SDS011;51310;52.198;5.422;2022-07-01T05:24:06;43.95;;;24.85;;
64842;SDS011;51310;52.198;5.422;2022-07-01T05:26:33;43.75;;;24.98;;
64842;SDS011;51310;52.198;5.422;2022-07-01T05:28:59;40.83;;;25.23;;
64842;SDS011;51310;52.198;5.422;2022-07-01T05:31:25;41.72;;;25.15;;
64842;SDS011;51310;52.198;5.422;2022-07-01T05:33:51;51.10;;;26.38;;
64842;SDS011;51310;52.198;5.422;2022-07-01T05:36:17;53.20;;;26.83;;
64842;SDS011;51310;52.198;5.422;2022-07-01T05:38:43;56.47;;;26.70;;
64842;SDS011;51310;52.198;5.422;2022-07-01T05:41:09;47.10;;;26.00;;
64842;SDS011;51310;52.198;5.422;2022-07-01T05:43:35;38.75;;;23.27;;
64842;SDS011;51310;52.198;5.422;2022-07-01T05:46:01;43.65;;;25.08;;
64842;SDS011;51310;52.198;5.422;2022-07-01T05:48:27;42.53;;;24.23;;
64842;SDS011;51310;52.198;5.422;2022-07-01T05:50:53;36.83;;;22.23;;
64842;SDS011;51310;52.198;5.422;2022-07-01T05:53:19;34.65;;;21.38;;
64842;SDS011;51310;52.198;5.422;2022-07-01T05:55:45;33.90;;;21.08;;
64842;SDS011;51310;52.198;5.422;2022-07-01T05:58:12;31.90;;;20.60;;
64842;SDS011;51310;52.198;5.422;2022-07-01T06:00:39;32.67;;;19.38;;
64842;SDS011;51310;52.198;5.422;2022-07-01T06:03:06;31.27;;;20.70;;
64842;SDS011;51310;52.198;5.422;2022-07-01T06:05:37;33.75;;;20.73;;
64842;SDS011;51310;52.198;5.422;2022-07-01T06:08:04;32.63;;;19.73;;
64842;SDS011;51310;52.198;5.422;2022-07-01T06:10:31;30.63;;;21.10;;
64842;SDS011;51310;52.198;5.422;2022-07-01T06:12:59;30.03;;;20.20;;
64842;SDS011;51310;52.198;5.422;2022-07-01T06:15:24;28.23;;;18.10;;
64842;SDS011;51310;52.198;5.422;2022-07-01T06:17:51;29.00;;;18.92;;
64842;SDS011;51310;52.198;5.422;2022-07-01T06:20:17;28.88;;;18.80;;
64842;SDS011;51310;52.198;5.422;2022-07-01T06:22:43;26.50;;;17.83;;
64842;SDS011;51310;52.198;5.422;2022-07-01T06:25:09;33.47;;;19.17;;
64842;SDS011;51310;52.198;5.422;2022-07-01T06:27:38;28.77;;;19.00;;
64842;SDS011;51310;52.198;5.422;2022-07-01T06:30:06;36.47;;;16.85;;
64842;SDS011;51310;52.198;5.422;2022-07-01T06:32:33;27.48;;;17.13;;
64842;SDS011;51310;52.198;5.422;2022-07-01T06:34:59;22.73;;;15.32;;
64842;SDS011;51310;52.198;5.422;2022-07-01T06:37:25;23.33;;;14.82;;
64842;SDS011;51310;52.198;5.422;2022-07-01T06:39:51;22.17;;;15.68;;
64842;SDS011;51310;52.198;5.422;2022-07-01T06:42:17;26.40;;;15.53;;
64842;SDS011;51310;52.198;5.422;2022-07-01T06:44:43;23.37;;;16.23;;
64842;SDS011;51310;52.198;5.422;2022-07-01T06:47:09;23.38;;;15.13;;
64842;SDS011;51310;52.198;5.422;2022-07-01T06:49:35;19.33;;;14.60;;
64842;SDS011;51310;52.198;5.422;2022-07-01T06:52:02;19.77;;;14.38;;
64842;SDS011;51310;52.198;5.422;2022-07-01T06:54:30;21.60;;;14.20;;
64842;SDS011;51310;52.198;5.422;2022-07-01T06:56:56;21.15;;;14.30;;
64842;SDS011;51310;52.198;5.422;2022-07-01T06:59:22;23.38;;;15.38;;
64842;SDS011;51310;52.198;5.422;2022-07-01T07:01:47;23.45;;;13.73;;
64842;SDS011;51310;52.198;5.422;2022-07-01T07:04:14;19.95;;;14.32;;
64842;SDS011;51310;52.198;5.422;2022-07-01T07:06:41;20.67;;;13.63;;
64842;SDS011;51310;52.198;5.422;2022-07-01T07:09:07;18.30;;;12.27;;
64842;SDS011;51310;52.198;5.422;2022-07-01T07:11:33;18.90;;;12.55;;
64842;SDS011;51310;52.198;5.422;2022-07-01T07:13:59;18.65;;;11.65;;
64842;SDS011;51310;52.198;5.422;2022-07-01T07:16:25;18.05;;;11.23;;
64842;SDS011;51310;52.198;5.422;2022-07-01T07:18:51;17.02;;;10.60;;
64842;SDS011;51310;52.198;5.422;2022-07-01T07:21:17;16.00;;;10.77;;
64842;SDS011;51310;52.198;5.422;2022-07-01T07:23:43;12.93;;;9.30;;
64842;SDS011;51310;52.198;5.422;2022-07-01T07:26:09;14.82;;;9.55;;
64842;SDS011;51310;52.198;5.422;2022-07-01T07:28:36;16.30;;;8.60;;
64842;SDS011;51310;52.198;5.422;2022-07-01T07:31:02;13.63;;;8.30;;
64842;SDS011;51310;52.198;5.422;2022-07-01T07:33:28;13.40;;;8.07;;
64842;SDS011;51310;52.198;5.422;2022-07-01T07:35:54;12.20;;;7.00;;
64842;SDS011;51310;52.198;5.422;2022-07-01T07:38:20;14.95;;;7.60;;
64842;SDS011;51310;52.198;5.422;2022-07-01T07:40:46;11.48;;;6.97;;
64842;SDS011;51310;52.198;5.422;2022-07-01T07:43:12;11.07;;;5.67;;
64842;SDS011;51310;52.198;5.422;2022-07-01T07:45:38;8.13;;;5.33;;
64842;SDS011;51310;52.198;5.422;2022-07-01T07:48:04;11.10;;;5.50;;
64842;SDS011;51310;52.198;5.422;2022-07-01T07:50:31;6.70;;;3.63;;
64842;SDS011;51310;52.198;5.422;2022-07-01T07:52:57;12.63;;;3.63;;
64842;SDS011;51310;52.198;5.422;2022-07-01T07:55:24;11.80;;;3.60;;
64842;SDS011;51310;52.198;5.422;2022-07-01T07:57:50;8.68;;;3.33;;
64842;SDS011;51310;52.198;5.422;2022-07-01T08:00:16;7.40;;;3.50;;
64842;SDS011;51310;52.198;5.422;2022-07-01T08:02:42;9.95;;;4.13;;
64842;SDS011;51310;52.198;5.422;2022-07-01T08:05:09;14.23;;;4.10;;
64842;SDS011;51310;52.198;5.422;2022-07-01T08:07:39;11.48;;;3.22;;
64842;SDS011;51310;52.198;5.422;2022-07-01T08:10:08;9.17;;;3.53;;
64842;SDS011;51310;52.198;5.422;2022-07-01T08:12:37;7.20;;;2.83;;
64842;SDS011;51310;52.198;5.422;2022-07-01T08:15:04;6.53;;;3.03;;
64842;SDS011;51310;52.198;5.422;2022-07-01T08:17:31;10.55;;;3.00;;
64842;SDS011;51310;52.198;5.422;2022-07-01T08:19:57;8.63;;;2.53;;
64842;SDS011;51310;52.198;5.422;2022-07-01T08:22:23;8.27;;;2.42;;
64842;SDS011;51310;52.198;5.422;2022-07-01T08:24:50;7.35;;;2.50;;
64842;SDS011;51310;52.198;5.422;2022-07-01T08:27:15;6.60;;;2.20;;
64842;SDS011;51310;52.198;5.422;2022-07-01T08:29:41;9.27;;;3.28;;
64842;SDS011;51310;52.198;5.422;2022-07-01T08:32:07;4.95;;;2.30;;
64842;SDS011;51310;52.198;5.422;2022-07-01T08:34:33;8.80;;;2.55;;
64842;SDS011;51310;52.198;5.422;2022-07-01T08:37:00;4.95;;;2.28;;
64842;SDS011;51310;52.198;5.422;2022-07-01T08:39:28;7.40;;;2.40;;
64842;SDS011;51310;52.198;5.422;2022-07-01T08:41:54;8.50;;;2.58;;
64842;SDS011;51310;52.198;5.422;2022-07-01T08:44:21;14.02;;;2.75;;
64842;SDS011;51310;52.198;5.422;2022-07-01T08:46:48;5.50;;;1.90;;
64842;SDS011;51310;52.198;5.422;2022-07-01T08:49:15;5.93;;;2.40;;
64842;SDS011;51310;52.198;5.422;2022-07-01T08:51:42;7.28;;;2.50;;
64842;SDS011;51310;52.198;5.422;2022-07-01T08:54:08;10.82;;;2.40;;
64842;SDS011;51310;52.198;5.422;2022-07-01T08:56:34;6.47;;;1.70;;
64842;SDS011;51310;52.198;5.422;2022-07-01T08:59:05;7.97;;;2.38;;
64842;SDS011;51310;52.198;5.422;2022-07-01T09:01:46;9.88;;;2.55;;
64842;SDS011;51310;52.198;5.422;2022-07-01T09:04:28;5.75;;;2.22;;
64842;SDS011;51310;52.198;5.422;2022-07-01T09:07:00;5.80;;;1.90;;
64842;SDS011;51310;52.198;5.422;2022-07-01T09:09:33;4.28;;;1.73;;
64842;SDS011;51310;52.198;5.422;2022-07-01T09:12:03;6.97;;;1.50;;
64842;SDS011;51310;52.198;5.422;2022-07-01T09:14:31;4.75;;;1.67;;
64842;SDS011;51310;52.198;5.422;2022-07-01T09:17:04;7.88;;;1.73;;
64842;SDS011;51310;52.198;5.422;2022-07-01T09:19:32;6.95;;;1.70;;
64842;SDS011;51310;52.198;5.422;2022-07-01T09:22:02;5.15;;;1.45;;
64842;SDS011;51310;52.198;5.422;2022-07-01T09:24:33;7.47;;;1.87;;
64842;SDS011;51310;52.198;5.422;2022-07-01T09:27:08;7.97;;;2.33;;
64842;SDS011;51310;52.198;5.422;2022-07-01T09:29:51;4.65;;;1.55;;
64842;SDS011;51310;52.198;5.422;2022-07-01T09:32:18;4.05;;;1.45;;
64842;SDS011;51310;52.198;5.422;2022-07-01T09:37:18;4.80;;;1.40;;
64842;SDS011;51310;52.198;5.422;2022-07-01T09:39:49;5.85;;;1.67;;
64842;SDS011;51310;52.198;5.422;2022-07-01T09:42:21;9.47;;;2.10;;
64842;SDS011;51310;52.198;5.422;2022-07-01T09:45:00;4.55;;;1.33;;
64842;SDS011;51310;52.198;5.422;2022-07-01T09:47:33;4.05;;;1.15;;
64842;SDS011;51310;52.198;5.422;2022-07-01T09:50:05;8.57;;;1.90;;
64842;SDS011;51310;52.198;5.422;2022-07-01T09:52:33;6.37;;;1.57;;
64842;SDS011;51310;52.198;5.422;2022-07-01T09:54:59;6.73;;;1.60;;
64842;SDS011;51310;52.198;5.422;2022-07-01T09:57:26;6.43;;;1.00;;
64842;SDS011;51310;52.198;5.422;2022-07-01T09:59:52;7.95;;;1.40;;
64842;SDS011;51310;52.198;5.422;2022-07-01T10:02:18;3.75;;;1.10;;
64842;SDS011;51310;52.198;5.422;2022-07-01T10:04:53;3.95;;;1.05;;
64842;SDS011;51310;52.198;5.422;2022-07-01T10:10:48;5.30;;;1.05;;
64842;SDS011;51310;52.198;5.422;2022-07-01T10:13:27;3.47;;;0.90;;
64842;SDS011;51310;52.198;5.422;2022-07-01T10:15:56;3.97;;;0.90;;
64842;SDS011;51310;52.198;5.422;2022-07-01T10:18:24;3.08;;;1.20;;
64842;SDS011;51310;52.198;5.422;2022-07-01T10:20:52;4.38;;;1.10;;
64842;SDS011;51310;52.198;5.422;2022-07-01T10:23:22;2.55;;;0.95;;
64842;SDS011;51310;52.198;5.422;2022-07-01T10:26:01;4.93;;;1.17;;
64842;SDS011;51310;52.198;5.422;2022-07-01T10:28:39;2.28;;;0.80;;
64842;SDS011;51310;52.198;5.422;2022-07-01T10:31:11;4.90;;;1.23;;
64842;SDS011;51310;52.198;5.422;2022-07-01T10:34:02;2.90;;;0.70;;
64842;SDS011;51310;52.198;5.422;2022-07-01T10:44:08;2.92;;;0.85;;
64842;SDS011;51310;52.198;5.422;2022-07-01T10:46:38;2.65;;;1.00;;
64842;SDS011;51310;52.198;5.422;2022-07-01T10:49:10;4.03;;;1.13;;
64842;SDS011;51310;52.198;5.422;2022-07-01T10:51:48;2.17;;;0.77;;
64842;SDS011;51310;52.198;5.422;2022-07-01T11:04:50;4.40;;;1.30;;
64842;SDS011;51310;52.198;5.422;2022-07-01T11:07:26;2.75;;;1.00;;
64842;SDS011;51310;52.198;5.422;2022-07-01T11:09:56;4.68;;;0.95;;
64842;SDS011;51310;52.198;5.422;2022-07-01T11:12:27;6.55;;;1.58;;
64842;SDS011;51310;52.198;5.422;2022-07-01T11:14:55;6.60;;;1.40;;
64842;SDS011;51310;52.198;5.422;2022-07-01T11:17:24;5.03;;;1.08;;
64842;SDS011;51310;52.198;5.422;2022-07-01T11:19:52;6.07;;;1.17;;
64842;SDS011;51310;52.198;5.422;2022-07-01T11:22:24;3.92;;;1.00;;
64842;SDS011;51310;52.198;5.422;2022-07-01T11:24:57;4.03;;;1.15;;
64842;SDS011;51310;52.198;5.422;2022-07-01T11:27:26;4.43;;;1.10;;
64842;SDS011;51310;52.198;5.422;2022-07-01T11:29:54;6.85;;;0.82;;
64842;SDS011;51310;52.198;5.422;2022-07-01T11:32:37;6.25;;;1.30;;
64842;SDS011;51310;52.198;5.422;2022-07-01T11:35:14;7.57;;;1.60;;
64842;SDS011;51310;52.198;5.422;2022-07-01T11:38:17;5.75;;;1.00;;
64842;SDS011;51310;52.198;5.422;2022-07-01T11:41:09;3.83;;;1.00;;
64842;SDS011;51310;52.198;5.422;2022-07-01T11:43:49;3.35;;;0.93;;
64842;SDS011;51310;52.198;5.422;2022-07-01T11:46:17;4.05;;;1.30;;
64842;SDS011;51310;52.198;5.422;2022-07-01T11:48:44;3.40;;;0.85;;
64842;SDS011;51310;52.198;5.422;2022-07-01T11:51:16;5.70;;;1.20;;
64842;SDS011;51310;52.198;5.422;2022-07-01T11:53:47;1.70;;;0.50;;
64842;SDS011;51310;52.198;5.422;2022-07-01T11:56:33;3.25;;;0.77;;
64842;SDS011;51310;52.198;5.422;2022-07-01T11:59:03;4.13;;;0.90;;
64842;SDS011;51310;52.198;5.422;2022-07-01T12:01:30;3.45;;;1.00;;
64842;SDS011;51310;52.198;5.422;2022-07-01T12:04:04;3.70;;;1.20;;
64842;SDS011;51310;52.198;5.422;2022-07-01T12:06:35;3.72;;;1.00;;
64842;SDS011;51310;52.198;5.422;2022-07-01T12:09:04;4.43;;;1.10;;
64842;SDS011;51310;52.198;5.422;2022-07-01T12:11:30;2.72;;;0.85;;
64842;SDS011;51310;52.198;5.422;2022-07-01T12:13:57;4.80;;;0.80;;
64842;SDS011;51310;52.198;5.422;2022-07-01T12:16:23;2.33;;;0.77;;
64842;SDS011;51310;52.198;5.422;2022-07-01T12:19:00;2.35;;;0.60;;
64842;SDS011;51310;52.198;5.422;2022-07-01T12:21:27;4.55;;;0.90;;
64842;SDS011;51310;52.198;5.422;2022-07-01T12:24:12;3.80;;;0.90;;
64842;SDS011;51310;52.198;5.422;2022-07-01T12:27:00;2.58;;;0.60;;
64842;SDS011;51310;52.198;5.422;2022-07-01T12:29:31;1.70;;;0.67;;
64842;SDS011;51310;52.198;5.422;2022-07-01T12:32:13;2.28;;;0.70;;
64842;SDS011;51310;52.198;5.422;2022-07-01T12:35:03;2.83;;;0.60;;
64842;SDS011;51310;52.198;5.422;2022-07-01T12:37:52;3.42;;;1.08;;
64842;SDS011;51310;52.198;5.422;2022-07-01T12:40:25;2.25;;;0.75;;
64842;SDS011;51310;52.198;5.422;2022-07-01T12:42:55;3.03;;;1.00;;
64842;SDS011;51310;52.198;5.422;2022-07-01T12:45:25;5.03;;;0.90;;
64842;SDS011;51310;52.198;5.422;2022-07-01T12:47:52;3.72;;;0.82;;
64842;SDS011;51310;52.198;5.422;2022-07-01T12:50:22;3.38;;;0.75;;
64842;SDS011;51310;52.198;5.422;2022-07-01T12:58:09;2.75;;;0.70;;
64842;SDS011;51310;52.198;5.422;2022-07-01T13:00:42;4.60;;;1.00;;
64842;SDS011;51310;52.198;5.422;2022-07-01T13:03:12;3.08;;;1.00;;
64842;SDS011;51310;52.198;5.422;2022-07-01T13:05:53;3.25;;;0.85;;
64842;SDS011;51310;52.198;5.422;2022-07-01T13:08:21;5.97;;;1.00;;
64842;SDS011;51310;52.198;5.422;2022-07-01T13:10:48;3.72;;;1.02;;
64842;SDS011;51310;52.198;5.422;2022-07-01T13:13:15;4.38;;;0.90;;
64842;SDS011;51310;52.198;5.422;2022-07-01T13:15:42;2.70;;;1.00;;
64842;SDS011;51310;52.198;5.422;2022-07-01T13:18:09;5.20;;;1.48;;
64842;SDS011;51310;52.198;5.422;2022-07-01T13:20:39;6.70;;;1.60;;
64842;SDS011;51310;52.198;5.422;2022-07-01T13:23:06;4.37;;;1.10;;
64842;SDS011;51310;52.198;5.422;2022-07-01T13:25:32;9.57;;;1.30;;
64842;SDS011;51310;52.198;5.422;2022-07-01T13:27:58;4.22;;;1.00;;
64842;SDS011;51310;52.198;5.422;2022-07-01T13:30:24;8.02;;;1.42;;
64842;SDS011;51310;52.198;5.422;2022-07-01T13:32:50;3.90;;;1.30;;
64842;SDS011;51310;52.198;5.422;2022-07-01T13:35:18;6.03;;;1.50;;
64842;SDS011;51310;52.198;5.422;2022-07-01T13:37:47;4.07;;;0.98;;
64842;SDS011;51310;52.198;5.422;2022-07-01T13:40:14;4.63;;;1.10;;
64842;SDS011;51310;52.198;5.422;2022-07-01T13:42:40;6.35;;;1.05;;
64842;SDS011;51310;52.198;5.422;2022-07-01T13:45:06;6.25;;;1.50;;
64842;SDS011;51310;52.198;5.422;2022-07-01T13:47:34;6.85;;;1.00;;
64842;SDS011;51310;52.198;5.422;2022-07-01T13:50:00;2.78;;;0.82;;
64842;SDS011;51310;52.198;5.422;2022-07-01T13:52:26;3.72;;;1.10;;
64842;SDS011;51310;52.198;5.422;2022-07-01T13:54:56;5.30;;;0.80;;
64842;SDS011;51310;52.198;5.422;2022-07-01T13:57:23;2.63;;;0.60;;
64842;SDS011;51310;52.198;5.422;2022-07-01T13:59:50;5.85;;;0.90;;
64842;SDS011;51310;52.198;5.422;2022-07-01T14:02:17;3.53;;;0.82;;
64842;SDS011;51310;52.198;5.422;2022-07-01T14:04:45;3.47;;;0.80;;
64842;SDS011;51310;52.198;5.422;2022-07-01T14:07:12;7.68;;;1.30;;
64842;SDS011;51310;52.198;5.422;2022-07-01T14:09:38;8.73;;;1.58;;
64842;SDS011;51310;52.198;5.422;2022-07-01T14:12:05;3.75;;;0.85;;
64842;SDS011;51310;52.198;5.422;2022-07-01T14:14:32;4.80;;;0.90;;
64842;SDS011;51310;52.198;5.422;2022-07-01T14:16:58;4.10;;;0.80;;
64842;SDS011;51310;52.198;5.422;2022-07-01T14:19:24;5.60;;;1.00;;
64842;SDS011;51310;52.198;5.422;2022-07-01T14:21:51;4.20;;;1.00;;
64842;SDS011;51310;52.198;5.422;2022-07-01T14:24:19;5.60;;;1.08;;
64842;SDS011;51310;52.198;5.422;2022-07-01T14:26:45;4.85;;;1.13;;
64842;SDS011;51310;52.198;5.422;2022-07-01T14:29:12;4.60;;;1.30;;
64842;SDS011;51310;52.198;5.422;2022-07-01T14:31:37;3.60;;;1.30;;
64842;SDS011;51310;52.198;5.422;2022-07-01T14:34:04;3.78;;;1.10;;
64842;SDS011;51310;52.198;5.422;2022-07-01T14:36:29;5.67;;;1.00;;
64842;SDS011;51310;52.198;5.422;2022-07-01T14:38:55;2.15;;;1.02;;
64842;SDS011;51310;52.198;5.422;2022-07-01T14:41:21;3.88;;;0.90;;
64842;SDS011;51310;52.198;5.422;2022-07-01T14:43:47;3.70;;;1.30;;
64842;SDS011;51310;52.198;5.422;2022-07-01T14:46:13;6.30;;;1.40;;
64842;SDS011;51310;52.198;5.422;2022-07-01T14:48:40;2.70;;;0.90;;
64842;SDS011;51310;52.198;5.422;2022-07-01T14:51:06;1.45;;;0.77;;
64842;SDS011;51310;52.198;5.422;2022-07-01T14:53:32;2.47;;;0.90;;
64842;SDS011;51310;52.198;5.422;2022-07-01T14:55:58;1.77;;;1.00;;
64842;SDS011;51310;52.198;5.422;2022-07-01T14:58:24;2.65;;;0.85;;
64842;SDS011;51310;52.198;5.422;2022-07-01T15:00:50;4.03;;;1.02;;
64842;SDS011;51310;52.198;5.422;2022-07-01T15:03:16;3.25;;;0.75;;
64842;SDS011;51310;52.198;5.422;2022-07-01T15:05:42;2.40;;;0.75;;
64842;SDS011;51310;52.198;5.422;2022-07-01T15:08:08;2.10;;;0.80;;
64842;SDS011;51310;52.198;5.422;2022-07-01T15:10:34;1.97;;;0.83;;